sensor_id;sensor_type;location;lat;lon;timestamp;P1;durP1;ratioP1;P2;durP2;ratioP2
16199;SDS011;8207;52.494;4.654;2023-03-20T00:01:54;13.73;;;5.10;;
16199;SDS011;8207;52.494;4.654;2023-03-20T00:04:21;12.73;;;5.20;;
16199;SDS011;8207;52.494;4.654;2023-03-20T00:06:49;9.90;;;5.57;;
16199;SDS011;8207;52.494;4.654;2023-03-20T00:09:16;13.50;;;6.23;;
16199;SDS011;8207;52.494;4.654;2023-03-20T00:11:45;14.77;;;5.60;;
16199;SDS011;8207;52.494;4.654;2023-03-20T00:14:14;14.37;;;5.50;;
16199;SDS011;8207;52.494;4.654;2023-03-20T00:16:44;8.10;;;4.43;;
16199;SDS011;8207;52.494;4.654;2023-03-20T00:19:13;9.17;;;4.87;;
16199;SDS011;8207;52.494;4.654;2023-03-20T00:21:42;12.70;;;5.57;;
16199;SDS011;8207;52.494;4.654;2023-03-20T00:24:10;11.03;;;5.37;;
16199;SDS011;8207;52.494;4.654;2023-03-20T00:26:37;11.73;;;5.30;;
16199;SDS011;8207;52.494;4.654;2023-03-20T00:29:06;8.87;;;5.80;;
16199;SDS011;8207;52.494;4.654;2023-03-20T00:31:42;8.93;;;5.10;;
16199;SDS011;8207;52.494;4.654;2023-03-20T00:34:11;15.80;;;6.47;;
16199;SDS011;8207;52.494;4.654;2023-03-20T00:36:39;11.07;;;5.37;;
16199;SDS011;8207;52.494;4.654;2023-03-20T00:39:06;14.20;;;6.43;;
16199;SDS011;8207;52.494;4.654;2023-03-20T00:41:36;15.77;;;6.57;;
16199;SDS011;8207;52.494;4.654;2023-03-20T00:44:13;12.20;;;6.57;;
16199;SDS011;8207;52.494;4.654;2023-03-20T00:46:49;13.83;;;5.53;;
16199;SDS011;8207;52.494;4.654;2023-03-20T00:49:19;12.57;;;5.10;;
16199;SDS011;8207;52.494;4.654;2023-03-20T00:51:47;11.37;;;5.77;;
16199;SDS011;8207;52.494;4.654;2023-03-20T00:54:15;11.27;;;4.70;;
16199;SDS011;8207;52.494;4.654;2023-03-20T00:56:43;9.13;;;4.30;;
16199;SDS011;8207;52.494;4.654;2023-03-20T00:59:16;11.90;;;4.40;;
16199;SDS011;8207;52.494;4.654;2023-03-20T01:01:46;7.63;;;3.97;;
16199;SDS011;8207;52.494;4.654;2023-03-20T01:04:14;10.87;;;4.10;;
16199;SDS011;8207;52.494;4.654;2023-03-20T01:06:43;9.17;;;4.30;;
16199;SDS011;8207;52.494;4.654;2023-03-20T01:09:11;12.90;;;3.83;;
16199;SDS011;8207;52.494;4.654;2023-03-20T01:11:38;10.97;;;4.57;;
16199;SDS011;8207;52.494;4.654;2023-03-20T01:14:09;11.30;;;4.63;;
16199;SDS011;8207;52.494;4.654;2023-03-20T01:16:39;9.20;;;3.70;;
16199;SDS011;8207;52.494;4.654;2023-03-20T01:19:10;8.43;;;4.20;;
16199;SDS011;8207;52.494;4.654;2023-03-20T01:21:40;9.57;;;3.90;;
16199;SDS011;8207;52.494;4.654;2023-03-20T01:24:07;12.10;;;4.50;;
16199;SDS011;8207;52.494;4.654;2023-03-20T01:26:35;11.03;;;3.70;;
16199;SDS011;8207;52.494;4.654;2023-03-20T01:29:04;9.97;;;4.20;;
16199;SDS011;8207;52.494;4.654;2023-03-20T01:31:43;10.27;;;4.20;;
16199;SDS011;8207;52.494;4.654;2023-03-20T01:34:10;14.53;;;4.50;;
16199;SDS011;8207;52.494;4.654;2023-03-20T01:36:37;7.77;;;3.80;;
16199;SDS011;8207;52.494;4.654;2023-03-20T01:39:05;12.93;;;4.90;;
16199;SDS011;8207;52.494;4.654;2023-03-20T01:41:33;13.00;;;5.50;;
16199;SDS011;8207;52.494;4.654;2023-03-20T01:44:00;11.10;;;5.10;;
16199;SDS011;8207;52.494;4.654;2023-03-20T01:46:43;10.33;;;3.93;;
16199;SDS011;8207;52.494;4.654;2023-03-20T01:52:10;11.20;;;3.07;;
16199;SDS011;8207;52.494;4.654;2023-03-20T01:54:37;9.83;;;3.50;;
16199;SDS011;8207;52.494;4.654;2023-03-20T01:57:07;10.90;;;3.47;;
16199;SDS011;8207;52.494;4.654;2023-03-20T01:59:40;7.27;;;2.90;;
16199;SDS011;8207;52.494;4.654;2023-03-20T02:02:13;10.30;;;3.30;;
16199;SDS011;8207;52.494;4.654;2023-03-20T02:04:44;8.60;;;2.83;;
16199;SDS011;8207;52.494;4.654;2023-03-20T02:07:15;8.50;;;3.13;;
16199;SDS011;8207;52.494;4.654;2023-03-20T02:09:46;7.37;;;2.70;;
16199;SDS011;8207;52.494;4.654;2023-03-20T02:12:14;11.10;;;3.20;;
16199;SDS011;8207;52.494;4.654;2023-03-20T02:14:41;9.97;;;2.97;;
16199;SDS011;8207;52.494;4.654;2023-03-20T02:17:09;12.97;;;3.43;;
16199;SDS011;8207;52.494;4.654;2023-03-20T02:19:39;9.20;;;3.10;;
16199;SDS011;8207;52.494;4.654;2023-03-20T02:25:26;7.53;;;2.30;;
16199;SDS011;8207;52.494;4.654;2023-03-20T02:28:13;9.70;;;2.50;;
16199;SDS011;8207;52.494;4.654;2023-03-20T02:31:02;11.13;;;2.70;;
16199;SDS011;8207;52.494;4.654;2023-03-20T02:33:53;9.33;;;3.90;;
16199;SDS011;8207;52.494;4.654;2023-03-20T02:37:01;8.83;;;3.47;;
16199;SDS011;8207;52.494;4.654;2023-03-20T02:39:54;6.97;;;2.47;;
16199;SDS011;8207;52.494;4.654;2023-03-20T02:42:33;10.07;;;2.60;;
16199;SDS011;8207;52.494;4.654;2023-03-20T02:45:09;9.43;;;2.43;;
16199;SDS011;8207;52.494;4.654;2023-03-20T02:47:45;9.40;;;3.07;;
16199;SDS011;8207;52.494;4.654;2023-03-20T02:50:17;9.27;;;2.60;;
16199;SDS011;8207;52.494;4.654;2023-03-20T02:52:55;5.37;;;2.43;;
16199;SDS011;8207;52.494;4.654;2023-03-20T02:55:31;8.77;;;3.17;;
16199;SDS011;8207;52.494;4.654;2023-03-20T02:58:06;5.93;;;2.50;;
16199;SDS011;8207;52.494;4.654;2023-03-20T03:00:41;5.50;;;3.50;;
16199;SDS011;8207;52.494;4.654;2023-03-20T03:03:15;7.63;;;3.07;;
16199;SDS011;8207;52.494;4.654;2023-03-20T03:05:47;4.90;;;2.80;;
16199;SDS011;8207;52.494;4.654;2023-03-20T03:08:18;8.43;;;2.60;;
16199;SDS011;8207;52.494;4.654;2023-03-20T03:10:49;11.07;;;3.10;;
16199;SDS011;8207;52.494;4.654;2023-03-20T03:13:20;11.00;;;3.27;;
16199;SDS011;8207;52.494;4.654;2023-03-20T03:15:53;6.00;;;3.43;;
16199;SDS011;8207;52.494;4.654;2023-03-20T03:18:27;7.27;;;2.73;;
16199;SDS011;8207;52.494;4.654;2023-03-20T03:20:56;10.30;;;3.83;;
16199;SDS011;8207;52.494;4.654;2023-03-20T03:23:28;14.07;;;4.20;;
16199;SDS011;8207;52.494;4.654;2023-03-20T03:25:57;9.23;;;3.80;;
16199;SDS011;8207;52.494;4.654;2023-03-20T03:28:27;13.83;;;4.53;;
16199;SDS011;8207;52.494;4.654;2023-03-20T03:31:01;10.63;;;4.57;;
16199;SDS011;8207;52.494;4.654;2023-03-20T03:33:31;15.17;;;5.03;;
16199;SDS011;8207;52.494;4.654;2023-03-20T03:36:03;16.97;;;5.13;;
16199;SDS011;8207;52.494;4.654;2023-03-20T03:38:39;13.30;;;4.73;;
16199;SDS011;8207;52.494;4.654;2023-03-20T03:41:18;11.77;;;5.50;;
16199;SDS011;8207;52.494;4.654;2023-03-20T03:43:52;12.97;;;5.27;;
16199;SDS011;8207;52.494;4.654;2023-03-20T03:46:26;8.70;;;4.90;;
16199;SDS011;8207;52.494;4.654;2023-03-20T03:48:59;10.87;;;5.07;;
16199;SDS011;8207;52.494;4.654;2023-03-20T03:51:29;14.87;;;5.80;;
16199;SDS011;8207;52.494;4.654;2023-03-20T03:54:02;9.70;;;4.50;;
16199;SDS011;8207;52.494;4.654;2023-03-20T03:56:32;11.77;;;5.63;;
16199;SDS011;8207;52.494;4.654;2023-03-20T03:59:00;13.47;;;5.30;;
16199;SDS011;8207;52.494;4.654;2023-03-20T04:01:31;8.43;;;4.20;;
16199;SDS011;8207;52.494;4.654;2023-03-20T04:04:00;14.20;;;5.23;;
16199;SDS011;8207;52.494;4.654;2023-03-20T04:06:32;11.30;;;4.80;;
16199;SDS011;8207;52.494;4.654;2023-03-20T04:08:59;7.73;;;4.53;;
16199;SDS011;8207;52.494;4.654;2023-03-20T04:11:27;10.27;;;5.20;;
16199;SDS011;8207;52.494;4.654;2023-03-20T04:13:54;11.93;;;5.53;;
16199;SDS011;8207;52.494;4.654;2023-03-20T04:16:22;10.87;;;5.03;;
16199;SDS011;8207;52.494;4.654;2023-03-20T04:18:50;10.23;;;4.60;;
16199;SDS011;8207;52.494;4.654;2023-03-20T04:21:19;8.37;;;5.37;;
16199;SDS011;8207;52.494;4.654;2023-03-20T04:23:46;13.17;;;6.07;;
16199;SDS011;8207;52.494;4.654;2023-03-20T04:26:13;13.63;;;7.23;;
16199;SDS011;8207;52.494;4.654;2023-03-20T04:28:41;15.00;;;6.87;;
16199;SDS011;8207;52.494;4.654;2023-03-20T04:31:08;14.63;;;7.60;;
16199;SDS011;8207;52.494;4.654;2023-03-20T04:33:36;21.83;;;9.10;;
16199;SDS011;8207;52.494;4.654;2023-03-20T04:36:03;18.73;;;8.47;;
16199;SDS011;8207;52.494;4.654;2023-03-20T04:38:31;17.33;;;7.37;;
16199;SDS011;8207;52.494;4.654;2023-03-20T04:40:58;15.30;;;8.40;;
16199;SDS011;8207;52.494;4.654;2023-03-20T04:43:25;14.80;;;7.40;;
16199;SDS011;8207;52.494;4.654;2023-03-20T04:45:53;18.00;;;7.97;;
16199;SDS011;8207;52.494;4.654;2023-03-20T04:48:21;16.33;;;7.90;;
16199;SDS011;8207;52.494;4.654;2023-03-20T04:50:48;16.43;;;8.13;;
16199;SDS011;8207;52.494;4.654;2023-03-20T04:53:15;16.10;;;8.00;;
16199;SDS011;8207;52.494;4.654;2023-03-20T04:55:42;12.93;;;7.17;;
16199;SDS011;8207;52.494;4.654;2023-03-20T04:58:10;14.93;;;7.97;;
16199;SDS011;8207;52.494;4.654;2023-03-20T05:00:37;15.93;;;8.27;;
16199;SDS011;8207;52.494;4.654;2023-03-20T05:03:05;14.43;;;7.30;;
16199;SDS011;8207;52.494;4.654;2023-03-20T05:05:32;14.67;;;7.50;;
16199;SDS011;8207;52.494;4.654;2023-03-20T05:08:02;12.33;;;7.27;;
16199;SDS011;8207;52.494;4.654;2023-03-20T05:10:29;16.37;;;7.57;;
16199;SDS011;8207;52.494;4.654;2023-03-20T05:12:56;14.67;;;8.27;;
16199;SDS011;8207;52.494;4.654;2023-03-20T05:15:23;14.57;;;7.83;;
16199;SDS011;8207;52.494;4.654;2023-03-20T05:17:50;17.90;;;9.27;;
16199;SDS011;8207;52.494;4.654;2023-03-20T05:20:20;24.53;;;8.73;;
16199;SDS011;8207;52.494;4.654;2023-03-20T05:22:47;17.00;;;8.40;;
16199;SDS011;8207;52.494;4.654;2023-03-20T05:25:16;19.37;;;9.00;;
16199;SDS011;8207;52.494;4.654;2023-03-20T05:27:44;16.70;;;8.43;;
16199;SDS011;8207;52.494;4.654;2023-03-20T05:30:12;16.97;;;8.10;;
16199;SDS011;8207;52.494;4.654;2023-03-20T05:32:39;17.67;;;8.57;;
16199;SDS011;8207;52.494;4.654;2023-03-20T05:35:08;17.30;;;9.30;;
16199;SDS011;8207;52.494;4.654;2023-03-20T05:37:36;17.13;;;9.13;;
16199;SDS011;8207;52.494;4.654;2023-03-20T05:40:04;19.50;;;8.53;;
16199;SDS011;8207;52.494;4.654;2023-03-20T05:42:32;19.33;;;8.93;;
16199;SDS011;8207;52.494;4.654;2023-03-20T05:44:59;18.87;;;8.73;;
16199;SDS011;8207;52.494;4.654;2023-03-20T05:47:26;18.40;;;9.50;;
16199;SDS011;8207;52.494;4.654;2023-03-20T05:49:53;17.77;;;8.53;;
16199;SDS011;8207;52.494;4.654;2023-03-20T05:52:20;17.70;;;8.13;;
16199;SDS011;8207;52.494;4.654;2023-03-20T05:54:48;17.37;;;8.33;;
16199;SDS011;8207;52.494;4.654;2023-03-20T05:57:15;16.13;;;7.90;;
16199;SDS011;8207;52.494;4.654;2023-03-20T05:59:42;19.20;;;7.83;;
16199;SDS011;8207;52.494;4.654;2023-03-20T06:02:09;18.10;;;7.83;;
16199;SDS011;8207;52.494;4.654;2023-03-20T06:04:37;19.43;;;7.90;;
16199;SDS011;8207;52.494;4.654;2023-03-20T06:07:04;22.57;;;9.30;;
16199;SDS011;8207;52.494;4.654;2023-03-20T06:09:31;22.37;;;8.10;;
16199;SDS011;8207;52.494;4.654;2023-03-20T06:11:59;22.83;;;8.30;;
16199;SDS011;8207;52.494;4.654;2023-03-20T06:14:26;13.43;;;7.40;;
16199;SDS011;8207;52.494;4.654;2023-03-20T06:16:53;18.43;;;8.07;;
16199;SDS011;8207;52.494;4.654;2023-03-20T06:19:21;17.00;;;6.90;;
16199;SDS011;8207;52.494;4.654;2023-03-20T06:21:48;21.83;;;7.70;;
16199;SDS011;8207;52.494;4.654;2023-03-20T06:24:15;17.33;;;8.13;;
16199;SDS011;8207;52.494;4.654;2023-03-20T06:26:43;21.07;;;8.40;;
16199;SDS011;8207;52.494;4.654;2023-03-20T06:29:11;26.27;;;7.53;;
16199;SDS011;8207;52.494;4.654;2023-03-20T06:31:38;18.20;;;8.10;;
16199;SDS011;8207;52.494;4.654;2023-03-20T06:34:05;17.27;;;7.40;;
16199;SDS011;8207;52.494;4.654;2023-03-20T06:36:32;25.00;;;9.03;;
16199;SDS011;8207;52.494;4.654;2023-03-20T06:38:59;20.00;;;7.30;;
16199;SDS011;8207;52.494;4.654;2023-03-20T06:41:26;22.23;;;7.43;;
16199;SDS011;8207;52.494;4.654;2023-03-20T06:43:53;18.07;;;7.80;;
16199;SDS011;8207;52.494;4.654;2023-03-20T06:46:21;15.53;;;6.70;;
16199;SDS011;8207;52.494;4.654;2023-03-20T06:48:48;21.33;;;7.43;;
16199;SDS011;8207;52.494;4.654;2023-03-20T06:51:16;18.87;;;8.13;;
16199;SDS011;8207;52.494;4.654;2023-03-20T06:53:43;19.10;;;6.30;;
16199;SDS011;8207;52.494;4.654;2023-03-20T06:56:10;18.50;;;7.37;;
16199;SDS011;8207;52.494;4.654;2023-03-20T06:58:37;21.37;;;7.73;;
16199;SDS011;8207;52.494;4.654;2023-03-20T07:01:07;20.47;;;6.23;;
16199;SDS011;8207;52.494;4.654;2023-03-20T07:03:36;21.40;;;6.03;;
16199;SDS011;8207;52.494;4.654;2023-03-20T07:06:04;22.27;;;6.57;;
16199;SDS011;8207;52.494;4.654;2023-03-20T07:08:31;22.33;;;6.63;;
16199;SDS011;8207;52.494;4.654;2023-03-20T07:10:59;12.53;;;5.90;;
16199;SDS011;8207;52.494;4.654;2023-03-20T07:13:26;19.27;;;6.37;;
16199;SDS011;8207;52.494;4.654;2023-03-20T07:15:53;18.97;;;5.90;;
16199;SDS011;8207;52.494;4.654;2023-03-20T07:18:22;20.67;;;6.13;;
16199;SDS011;8207;52.494;4.654;2023-03-20T07:20:51;20.90;;;5.50;;
16199;SDS011;8207;52.494;4.654;2023-03-20T07:23:18;16.77;;;4.70;;
16199;SDS011;8207;52.494;4.654;2023-03-20T07:25:45;14.23;;;5.20;;
16199;SDS011;8207;52.494;4.654;2023-03-20T07:28:12;13.90;;;5.13;;
16199;SDS011;8207;52.494;4.654;2023-03-20T07:30:39;13.60;;;4.93;;
16199;SDS011;8207;52.494;4.654;2023-03-20T07:33:06;17.87;;;5.30;;
16199;SDS011;8207;52.494;4.654;2023-03-20T07:35:33;14.00;;;4.50;;
16199;SDS011;8207;52.494;4.654;2023-03-20T07:38:02;13.57;;;3.87;;
16199;SDS011;8207;52.494;4.654;2023-03-20T07:40:28;14.70;;;5.27;;
16199;SDS011;8207;52.494;4.654;2023-03-20T07:42:56;17.70;;;4.80;;
16199;SDS011;8207;52.494;4.654;2023-03-20T07:45:23;16.80;;;4.53;;
16199;SDS011;8207;52.494;4.654;2023-03-20T07:47:50;18.97;;;4.17;;
16199;SDS011;8207;52.494;4.654;2023-03-20T07:50:16;16.17;;;4.47;;
16199;SDS011;8207;52.494;4.654;2023-03-20T07:52:47;19.63;;;5.00;;
16199;SDS011;8207;52.494;4.654;2023-03-20T07:55:17;14.97;;;4.63;;
16199;SDS011;8207;52.494;4.654;2023-03-20T07:57:43;18.13;;;4.70;;
16199;SDS011;8207;52.494;4.654;2023-03-20T08:00:11;18.27;;;4.27;;
16199;SDS011;8207;52.494;4.654;2023-03-20T08:02:39;20.43;;;5.13;;
16199;SDS011;8207;52.494;4.654;2023-03-20T08:05:06;16.30;;;5.07;;
16199;SDS011;8207;52.494;4.654;2023-03-20T08:07:34;17.23;;;5.30;;
16199;SDS011;8207;52.494;4.654;2023-03-20T08:10:01;12.70;;;5.10;;
16199;SDS011;8207;52.494;4.654;2023-03-20T08:12:30;18.80;;;5.30;;
16199;SDS011;8207;52.494;4.654;2023-03-20T08:14:57;18.53;;;4.60;;
16199;SDS011;8207;52.494;4.654;2023-03-20T08:17:24;18.47;;;4.73;;
16199;SDS011;8207;52.494;4.654;2023-03-20T08:19:50;20.70;;;5.53;;
16199;SDS011;8207;52.494;4.654;2023-03-20T08:22:17;21.87;;;7.03;;
16199;SDS011;8207;52.494;4.654;2023-03-20T08:24:44;18.03;;;4.40;;
16199;SDS011;8207;52.494;4.654;2023-03-20T08:27:11;16.83;;;4.93;;
16199;SDS011;8207;52.494;4.654;2023-03-20T08:29:40;15.33;;;4.57;;
16199;SDS011;8207;52.494;4.654;2023-03-20T08:32:06;22.13;;;4.97;;
16199;SDS011;8207;52.494;4.654;2023-03-20T08:34:33;17.17;;;4.97;;
16199;SDS011;8207;52.494;4.654;2023-03-20T08:37:01;23.83;;;4.70;;
16199;SDS011;8207;52.494;4.654;2023-03-20T08:39:28;12.57;;;4.23;;
16199;SDS011;8207;52.494;4.654;2023-03-20T08:41:57;21.77;;;5.47;;
16199;SDS011;8207;52.494;4.654;2023-03-20T08:44:27;12.83;;;4.00;;
16199;SDS011;8207;52.494;4.654;2023-03-20T08:46:55;20.40;;;4.97;;
16199;SDS011;8207;52.494;4.654;2023-03-20T08:49:22;14.30;;;3.73;;
16199;SDS011;8207;52.494;4.654;2023-03-20T08:51:49;14.13;;;4.47;;
16199;SDS011;8207;52.494;4.654;2023-03-20T08:54:16;16.33;;;4.77;;
16199;SDS011;8207;52.494;4.654;2023-03-20T08:56:43;21.63;;;4.93;;
16199;SDS011;8207;52.494;4.654;2023-03-20T08:59:10;17.80;;;4.40;;
16199;SDS011;8207;52.494;4.654;2023-03-20T09:01:37;15.90;;;3.80;;
16199;SDS011;8207;52.494;4.654;2023-03-20T09:04:06;15.67;;;3.97;;
16199;SDS011;8207;52.494;4.654;2023-03-20T09:06:34;15.17;;;4.20;;
16199;SDS011;8207;52.494;4.654;2023-03-20T09:09:02;14.97;;;3.83;;
16199;SDS011;8207;52.494;4.654;2023-03-20T09:11:30;15.50;;;4.00;;
16199;SDS011;8207;52.494;4.654;2023-03-20T09:13:57;15.10;;;4.43;;
16199;SDS011;8207;52.494;4.654;2023-03-20T09:16:24;18.20;;;4.07;;
16199;SDS011;8207;52.494;4.654;2023-03-20T09:18:52;15.57;;;4.47;;
16199;SDS011;8207;52.494;4.654;2023-03-20T09:21:20;11.13;;;4.53;;
16199;SDS011;8207;52.494;4.654;2023-03-20T09:23:47;20.23;;;6.07;;
16199;SDS011;8207;52.494;4.654;2023-03-20T09:26:14;16.20;;;5.50;;
16199;SDS011;8207;52.494;4.654;2023-03-20T09:28:41;15.07;;;5.00;;
16199;SDS011;8207;52.494;4.654;2023-03-20T09:31:08;17.13;;;4.93;;
16199;SDS011;8207;52.494;4.654;2023-03-20T09:33:36;11.50;;;4.63;;
16199;SDS011;8207;52.494;4.654;2023-03-20T09:36:03;14.60;;;5.00;;
16199;SDS011;8207;52.494;4.654;2023-03-20T09:38:33;14.23;;;5.33;;
16199;SDS011;8207;52.494;4.654;2023-03-20T09:41:00;15.77;;;4.57;;
16199;SDS011;8207;52.494;4.654;2023-03-20T09:43:34;13.27;;;5.13;;
16199;SDS011;8207;52.494;4.654;2023-03-20T09:46:14;14.30;;;5.13;;
16199;SDS011;8207;52.494;4.654;2023-03-20T09:48:48;16.53;;;6.00;;
16199;SDS011;8207;52.494;4.654;2023-03-20T09:51:23;10.23;;;4.90;;
16199;SDS011;8207;52.494;4.654;2023-03-20T09:54:00;13.87;;;5.00;;
16199;SDS011;8207;52.494;4.654;2023-03-20T09:56:31;15.93;;;5.37;;
16199;SDS011;8207;52.494;4.654;2023-03-20T09:59:00;15.87;;;5.43;;
16199;SDS011;8207;52.494;4.654;2023-03-20T10:01:30;15.77;;;5.73;;
16199;SDS011;8207;52.494;4.654;2023-03-20T10:04:03;14.97;;;5.57;;
16199;SDS011;8207;52.494;4.654;2023-03-20T10:06:33;14.13;;;6.17;;
16199;SDS011;8207;52.494;4.654;2023-03-20T10:09:03;14.77;;;6.37;;
16199;SDS011;8207;52.494;4.654;2023-03-20T10:11:52;15.33;;;6.97;;
16199;SDS011;8207;52.494;4.654;2023-03-20T10:14:30;11.47;;;6.03;;
16199;SDS011;8207;52.494;4.654;2023-03-20T10:17:08;13.60;;;7.33;;
16199;SDS011;8207;52.494;4.654;2023-03-20T10:19:48;12.80;;;8.57;;
16199;SDS011;8207;52.494;4.654;2023-03-20T10:22:20;18.10;;;7.97;;
16199;SDS011;8207;52.494;4.654;2023-03-20T10:24:53;17.37;;;8.63;;
16199;SDS011;8207;52.494;4.654;2023-03-20T10:27:25;16.07;;;8.73;;
16199;SDS011;8207;52.494;4.654;2023-03-20T10:30:00;14.70;;;8.50;;
16199;SDS011;8207;52.494;4.654;2023-03-20T10:32:40;13.33;;;8.73;;
16199;SDS011;8207;52.494;4.654;2023-03-20T10:35:15;14.97;;;9.67;;
16199;SDS011;8207;52.494;4.654;2023-03-20T10:37:50;16.33;;;9.00;;
16199;SDS011;8207;52.494;4.654;2023-03-20T10:40:29;15.00;;;10.13;;
16199;SDS011;8207;52.494;4.654;2023-03-20T10:43:00;16.47;;;9.90;;
16199;SDS011;8207;52.494;4.654;2023-03-20T10:45:33;14.80;;;10.97;;
16199;SDS011;8207;52.494;4.654;2023-03-20T10:48:05;15.10;;;10.10;;
16199;SDS011;8207;52.494;4.654;2023-03-20T10:50:39;14.53;;;10.63;;
16199;SDS011;8207;52.494;4.654;2023-03-20T10:53:13;14.50;;;10.03;;
16199;SDS011;8207;52.494;4.654;2023-03-20T10:55:49;19.10;;;10.17;;
16199;SDS011;8207;52.494;4.654;2023-03-20T10:58:20;14.10;;;10.07;;
16199;SDS011;8207;52.494;4.654;2023-03-20T11:00:49;18.30;;;10.97;;
16199;SDS011;8207;52.494;4.654;2023-03-20T11:03:20;18.13;;;11.03;;
16199;SDS011;8207;52.494;4.654;2023-03-20T11:05:50;19.27;;;11.30;;
16199;SDS011;8207;52.494;4.654;2023-03-20T11:08:21;15.33;;;10.93;;
16199;SDS011;8207;52.494;4.654;2023-03-20T11:10:58;16.13;;;11.20;;
16199;SDS011;8207;52.494;4.654;2023-03-20T11:13:29;13.43;;;10.20;;
16199;SDS011;8207;52.494;4.654;2023-03-20T11:16:06;15.97;;;10.60;;
16199;SDS011;8207;52.494;4.654;2023-03-20T11:18:36;15.87;;;11.03;;
16199;SDS011;8207;52.494;4.654;2023-03-20T11:21:03;14.83;;;10.03;;
16199;SDS011;8207;52.494;4.654;2023-03-20T11:23:31;17.47;;;11.07;;
16199;SDS011;8207;52.494;4.654;2023-03-20T11:26:00;15.13;;;10.47;;
16199;SDS011;8207;52.494;4.654;2023-03-20T11:28:31;13.63;;;10.20;;
16199;SDS011;8207;52.494;4.654;2023-03-20T11:31:01;17.13;;;11.80;;
16199;SDS011;8207;52.494;4.654;2023-03-20T11:33:31;14.80;;;10.73;;
16199;SDS011;8207;52.494;4.654;2023-03-20T11:36:04;16.63;;;10.43;;
16199;SDS011;8207;52.494;4.654;2023-03-20T11:38:41;14.20;;;10.50;;
16199;SDS011;8207;52.494;4.654;2023-03-20T11:41:18;15.33;;;10.60;;
16199;SDS011;8207;52.494;4.654;2023-03-20T11:43:49;13.97;;;9.87;;
16199;SDS011;8207;52.494;4.654;2023-03-20T11:46:17;13.90;;;10.30;;
16199;SDS011;8207;52.494;4.654;2023-03-20T11:48:47;16.57;;;10.73;;
16199;SDS011;8207;52.494;4.654;2023-03-20T11:51:27;12.97;;;9.90;;
16199;SDS011;8207;52.494;4.654;2023-03-20T11:53:57;14.70;;;9.30;;
16199;SDS011;8207;52.494;4.654;2023-03-20T11:56:28;12.03;;;9.53;;
16199;SDS011;8207;52.494;4.654;2023-03-20T11:58:57;14.17;;;9.63;;
16199;SDS011;8207;52.494;4.654;2023-03-20T12:01:27;11.83;;;8.90;;
16199;SDS011;8207;52.494;4.654;2023-03-20T12:04:02;12.27;;;8.60;;
16199;SDS011;8207;52.494;4.654;2023-03-20T12:06:36;10.47;;;8.13;;
16199;SDS011;8207;52.494;4.654;2023-03-20T12:09:15;8.57;;;7.33;;
16199;SDS011;8207;52.494;4.654;2023-03-20T12:11:53;7.83;;;6.97;;
16199;SDS011;8207;52.494;4.654;2023-03-20T12:14:25;9.50;;;6.83;;
16199;SDS011;8207;52.494;4.654;2023-03-20T12:17:01;8.80;;;6.97;;
16199;SDS011;8207;52.494;4.654;2023-03-20T12:19:44;10.93;;;7.83;;
16199;SDS011;8207;52.494;4.654;2023-03-20T12:22:15;7.50;;;6.47;;
16199;SDS011;8207;52.494;4.654;2023-03-20T12:24:49;9.20;;;6.13;;
16199;SDS011;8207;52.494;4.654;2023-03-20T12:27:24;9.10;;;7.00;;
16199;SDS011;8207;52.494;4.654;2023-03-20T12:29:57;11.07;;;7.40;;
16199;SDS011;8207;52.494;4.654;2023-03-20T12:32:30;9.27;;;6.03;;
16199;SDS011;8207;52.494;4.654;2023-03-20T12:35:02;8.97;;;6.80;;
16199;SDS011;8207;52.494;4.654;2023-03-20T12:37:36;8.30;;;6.30;;
16199;SDS011;8207;52.494;4.654;2023-03-20T12:40:03;12.70;;;6.07;;
16199;SDS011;8207;52.494;4.654;2023-03-20T12:42:37;10.23;;;6.93;;
16199;SDS011;8207;52.494;4.654;2023-03-20T12:45:11;7.93;;;5.70;;
16199;SDS011;8207;52.494;4.654;2023-03-20T12:48:03;7.87;;;5.37;;
16199;SDS011;8207;52.494;4.654;2023-03-20T12:50:41;9.87;;;6.73;;
16199;SDS011;8207;52.494;4.654;2023-03-20T12:53:19;8.80;;;5.53;;
16199;SDS011;8207;52.494;4.654;2023-03-20T12:56:02;6.27;;;4.80;;
16199;SDS011;8207;52.494;4.654;2023-03-20T12:58:42;13.47;;;5.70;;
16199;SDS011;8207;52.494;4.654;2023-03-20T13:01:13;9.87;;;5.50;;
16199;SDS011;8207;52.494;4.654;2023-03-20T13:03:47;11.43;;;5.47;;
16199;SDS011;8207;52.494;4.654;2023-03-20T13:06:40;9.57;;;5.10;;
16199;SDS011;8207;52.494;4.654;2023-03-20T13:09:22;10.37;;;5.70;;
16199;SDS011;8207;52.494;4.654;2023-03-20T13:12:00;11.53;;;5.73;;
16199;SDS011;8207;52.494;4.654;2023-03-20T13:14:34;8.87;;;5.30;;
16199;SDS011;8207;52.494;4.654;2023-03-20T13:17:09;10.43;;;5.00;;
16199;SDS011;8207;52.494;4.654;2023-03-20T13:19:45;10.97;;;5.90;;
16199;SDS011;8207;52.494;4.654;2023-03-20T13:22:21;8.83;;;5.93;;
16199;SDS011;8207;52.494;4.654;2023-03-20T13:24:57;12.40;;;6.33;;
16199;SDS011;8207;52.494;4.654;2023-03-20T13:27:33;11.77;;;5.40;;
16199;SDS011;8207;52.494;4.654;2023-03-20T13:30:09;11.07;;;6.30;;
16199;SDS011;8207;52.494;4.654;2023-03-20T13:32:43;11.63;;;5.90;;
16199;SDS011;8207;52.494;4.654;2023-03-20T13:35:27;12.60;;;5.97;;
16199;SDS011;8207;52.494;4.654;2023-03-20T13:38:05;13.63;;;7.27;;
16199;SDS011;8207;52.494;4.654;2023-03-20T13:40:37;12.00;;;6.17;;
16199;SDS011;8207;52.494;4.654;2023-03-20T13:43:18;11.37;;;6.43;;
16199;SDS011;8207;52.494;4.654;2023-03-20T13:45:52;15.20;;;6.60;;
16199;SDS011;8207;52.494;4.654;2023-03-20T13:48:26;10.33;;;6.37;;
16199;SDS011;8207;52.494;4.654;2023-03-20T13:50:58;14.17;;;7.53;;
16199;SDS011;8207;52.494;4.654;2023-03-20T13:53:34;15.30;;;7.10;;
16199;SDS011;8207;52.494;4.654;2023-03-20T13:56:11;14.33;;;6.63;;
16199;SDS011;8207;52.494;4.654;2023-03-20T13:58:50;17.17;;;7.63;;
16199;SDS011;8207;52.494;4.654;2023-03-20T14:01:27;10.30;;;7.40;;
16199;SDS011;8207;52.494;4.654;2023-03-20T14:04:01;19.37;;;6.50;;
16199;SDS011;8207;52.494;4.654;2023-03-20T14:06:49;12.90;;;7.47;;
16199;SDS011;8207;52.494;4.654;2023-03-20T14:09:27;15.63;;;7.10;;
16199;SDS011;8207;52.494;4.654;2023-03-20T14:12:00;11.50;;;7.20;;
16199;SDS011;8207;52.494;4.654;2023-03-20T14:14:29;15.53;;;7.57;;
16199;SDS011;8207;52.494;4.654;2023-03-20T14:17:03;15.83;;;7.80;;
16199;SDS011;8207;52.494;4.654;2023-03-20T14:19:34;19.63;;;9.00;;
16199;SDS011;8207;52.494;4.654;2023-03-20T14:22:03;19.80;;;8.47;;
16199;SDS011;8207;52.494;4.654;2023-03-20T14:24:33;22.60;;;9.40;;
16199;SDS011;8207;52.494;4.654;2023-03-20T14:27:02;21.73;;;9.03;;
16199;SDS011;8207;52.494;4.654;2023-03-20T14:29:30;26.57;;;9.37;;
16199;SDS011;8207;52.494;4.654;2023-03-20T14:35:00;20.00;;;7.90;;
16199;SDS011;8207;52.494;4.654;2023-03-20T14:37:55;24.10;;;9.93;;
16199;SDS011;8207;52.494;4.654;2023-03-20T14:40:35;18.40;;;8.13;;
16199;SDS011;8207;52.494;4.654;2023-03-20T14:43:12;23.70;;;8.33;;
16199;SDS011;8207;52.494;4.654;2023-03-20T14:45:43;23.10;;;9.20;;
16199;SDS011;8207;52.494;4.654;2023-03-20T14:48:26;23.40;;;9.10;;
16199;SDS011;8207;52.494;4.654;2023-03-20T14:51:08;19.73;;;9.00;;
16199;SDS011;8207;52.494;4.654;2023-03-20T14:53:48;25.07;;;9.03;;
16199;SDS011;8207;52.494;4.654;2023-03-20T14:56:19;24.13;;;9.80;;
16199;SDS011;8207;52.494;4.654;2023-03-20T14:58:55;31.03;;;10.40;;
16199;SDS011;8207;52.494;4.654;2023-03-20T15:01:24;30.37;;;9.73;;
16199;SDS011;8207;52.494;4.654;2023-03-20T15:03:56;29.30;;;9.73;;
16199;SDS011;8207;52.494;4.654;2023-03-20T15:06:27;28.00;;;9.90;;
16199;SDS011;8207;52.494;4.654;2023-03-20T15:08:55;38.00;;;9.57;;
16199;SDS011;8207;52.494;4.654;2023-03-20T15:11:25;36.27;;;9.90;;
16199;SDS011;8207;52.494;4.654;2023-03-20T15:13:53;36.30;;;10.40;;
16199;SDS011;8207;52.494;4.654;2023-03-20T15:16:26;40.87;;;10.77;;
16199;SDS011;8207;52.494;4.654;2023-03-20T15:18:56;38.07;;;11.77;;
16199;SDS011;8207;52.494;4.654;2023-03-20T15:21:28;42.70;;;11.70;;